Time,TemperatureF,DewpointF,PressureIn,WindDirection,WindDirectionDegrees,WindSpeedMPH,WindSpeedGustMPH,Humidity,HourlyPrecipIn,Conditions,Clouds,dailyrainin,SoftwareType,DateUTC
2013-03-25 00:00:00,29.5,26.4,29.53,North,2,0.0,0.0,88,0.02,,,0.00,VWS V14.00,2013-03-25 04:00:00,
2013-03-25 00:01:00,29.5,26.4,29.53,North,2,0.0,0.0,88,0.02,,,0.00,VWS V14.00,2013-03-25 04:01:00,
2013-03-25 00:06:00,29.5,26.7,29.53,North,357,0.0,0.0,89,0.01,,,0.00,VWS V14.00,2013-03-25 04:06:00,
2013-03-25 00:11:00,29.5,26.7,29.53,North,357,0.0,0.0,89,0.01,,,0.00,VWS V14.00,2013-03-25 04:11:00,
2013-03-25 00:16:00,29.4,26.5,29.53,North,1,0.0,0.0,89,0.02,,,0.01,VWS V14.00,2013-03-25 04:16:00,
2013-03-25 00:22:00,29.4,26.5,29.53,North,3,0.0,0.0,89,0.03,,,0.02,VWS V14.00,2013-03-25 04:22:00,
2013-03-25 00:27:00,29.2,26.4,29.53,North,357,0.0,0.0,89,0.04,,,0.03,VWS V14.00,2013-03-25 04:27:00,
2013-03-25 00:32:00,29.2,26.6,29.53,North,357,0.0,0.0,90,0.04,,,0.03,VWS V14.00,2013-03-25 04:32:00,
2013-03-25 00:37:00,29.2,26.6,29.53,North,357,0.0,0.0,90,0.05,,,0.04,VWS V14.00,2013-03-25 04:37:00,
2013-03-25 00:42:00,29.2,26.6,29.53,North,357,0.0,0.0,90,0.04,,,0.04,VWS V14.00,2013-03-25 04:42:00,
2013-03-25 00:47:00,29.4,26.8,29.53,North,357,0.0,0.0,90,0.05,,,0.05,VWS V14.00,2013-03-25 04:47:00,
2013-03-25 00:52:00,29.2,26.6,29.53,North,3,0.0,0.0,90,0.05,,,0.05,VWS V14.00,2013-03-25 04:52:00,
2013-03-25 00:57:00,29.4,26.8,29.53,North,2,0.0,0.0,90,0.05,,,0.05,VWS V14.00,2013-03-25 04:57:00,
2013-03-25 01:02:00,29.4,26.8,29.53,North,2,0.0,0.0,90,0.06,,,0.06,VWS V14.00,2013-03-25 05:02:00,
2013-03-25 01:07:00,29.4,26.8,29.53,North,1,0.0,0.0,90,0.07,,,0.07,VWS V14.00,2013-03-25 05:07:00,
2013-03-25 01:12:00,29.4,26.8,29.53,North,357,0.0,0.0,90,0.07,,,0.07,VWS V14.00,2013-03-25 05:12:00,
2013-03-25 01:17:00,29.4,26.8,29.53,North,2,0.0,0.0,90,0.06,,,0.07,VWS V14.00,2013-03-25 05:17:00,
2013-03-25 01:22:00,29.4,26.8,29.53,North,2,0.0,0.0,90,0.06,,,0.08,VWS V14.00,2013-03-25 05:22:00,
2013-03-25 01:27:00,29.4,27.1,29.53,North,3,0.0,0.0,91,0.06,,,0.08,VWS V14.00,2013-03-25 05:27:00,
2013-03-25 01:32:00,29.4,27.1,29.53,North,357,0.0,0.0,91,0.05,,,0.08,VWS V14.00,2013-03-25 05:32:00,
2013-03-25 01:37:00,29.4,27.1,29.53,North,1,0.0,0.0,91,0.04,,,0.08,VWS V14.00,2013-03-25 05:37:00,
2013-03-25 01:42:00,29.4,26.8,29.53,North,357,0.0,0.0,90,0.05,,,0.09,VWS V14.00,2013-03-25 05:42:00,
2013-03-25 01:47:00,29.4,26.8,29.53,North,3,0.0,0.0,90,0.04,,,0.09,VWS V14.00,2013-03-25 05:47:00,
2013-03-25 01:52:00,29.4,26.8,29.53,North,1,0.0,0.0,90,0.04,,,0.09,VWS V14.00,2013-03-25 05:52:00,
2013-03-25 01:57:00,29.4,26.8,29.53,North,357,0.0,0.0,90,0.04,,,0.09,VWS V14.00,2013-03-25 05:57:00,
2013-03-25 02:03:00,29.4,26.8,29.53,North,1,0.0,0.0,90,0.03,,BKN033,0.09,VWS V14.00,2013-03-25 06:03:00,
2013-03-25 02:08:00,29.4,26.8,29.53,North,357,0.0,0.0,90,0.03,,BKN033,0.10,VWS V14.00,2013-03-25 06:08:00,
2013-03-25 02:13:00,29.4,26.8,29.53,North,357,0.0,0.0,90,0.03,,BKN033,0.10,VWS V14.00,2013-03-25 06:13:00,
2013-03-25 02:18:00,29.4,26.8,29.53,North,3,0.0,0.0,90,0.03,,BKN033,0.10,VWS V14.00,2013-03-25 06:18:00,
2013-03-25 02:23:00,29.4,26.8,29.53,North,357,0.0,0.0,90,0.02,,BKN033,0.10,VWS V14.00,2013-03-25 06:23:00,
2013-03-25 02:28:00,29.4,26.8,29.53,North,3,0.0,0.0,90,0.02,,BKN033,0.10,VWS V14.00,2013-03-25 06:28:00,
2013-03-25 02:33:00,29.4,26.8,29.50,North,357,0.0,0.0,90,0.02,,BKN033,0.10,VWS V14.00,2013-03-25 06:33:00,
2013-03-25 02:38:00,29.4,26.8,29.50,North,1,0.0,0.0,90,0.03,,BKN033,0.11,VWS V14.00,2013-03-25 06:38:00,
2013-03-25 02:43:00,29.2,26.6,29.50,North,357,0.0,0.0,90,0.02,,BKN033,0.11,VWS V14.00,2013-03-25 06:43:00,
2013-03-25 02:48:00,29.2,26.6,29.50,North,357,0.0,0.0,90,0.02,,,0.11,VWS V14.00,2013-03-25 06:48:00,
2013-03-25 02:53:00,29.2,26.6,29.50,North,357,0.0,0.0,90,0.02,,,0.11,VWS V14.00,2013-03-25 06:53:00,
2013-03-25 02:58:00,29.2,26.9,29.50,North,1,0.0,0.0,91,0.04,,,0.13,VWS V14.00,2013-03-25 06:58:00,
2013-03-25 03:03:00,29.2,26.9,29.50,North,2,0.0,0.0,91,0.04,,,0.13,VWS V14.00,2013-03-25 07:03:00,
2013-03-25 03:08:00,29.2,26.9,29.50,North,357,0.0,0.0,91,0.03,,,0.13,VWS V14.00,2013-03-25 07:08:00,
2013-03-25 03:14:00,29.4,27.1,29.50,North,2,0.0,0.0,91,0.03,,,0.13,VWS V14.00,2013-03-25 07:14:00,
2013-03-25 03:19:00,29.4,27.1,29.47,North,357,0.0,0.0,91,0.04,,,0.14,VWS V14.00,2013-03-25 07:19:00,
2013-03-25 03:24:00,29.4,27.1,29.47,North,357,0.0,0.0,91,0.04,,,0.14,VWS V14.00,2013-03-25 07:24:00,
2013-03-25 03:29:00,29.4,27.1,29.47,North,357,0.0,0.0,91,0.04,,,0.14,VWS V14.00,2013-03-25 07:29:00,
2013-03-25 03:34:00,29.4,26.8,29.47,North,3,0.0,0.0,90,0.04,,,0.14,VWS V14.00,2013-03-25 07:34:00,
2013-03-25 03:39:00,29.4,26.8,29.47,North,3,0.0,0.0,90,0.03,,,0.14,VWS V14.00,2013-03-25 07:39:00,
2013-03-25 03:44:00,29.4,26.8,29.47,North,357,0.0,0.0,90,0.03,,,0.14,VWS V14.00,2013-03-25 07:44:00,
2013-03-25 03:49:00,29.4,26.8,29.47,North,2,0.0,0.0,90,0.03,,,0.14,VWS V14.00,2013-03-25 07:49:00,
2013-03-25 03:54:00,29.4,26.8,29.47,North,357,0.0,0.0,90,0.03,,,0.14,VWS V14.00,2013-03-25 07:54:00,
2013-03-25 03:59:00,29.2,26.6,29.47,North,1,0.0,0.0,90,0.01,,,0.14,VWS V14.00,2013-03-25 07:59:00,
2013-03-25 04:04:00,29.2,26.9,29.47,North,357,0.0,0.0,91,0.02,,,0.15,VWS V14.00,2013-03-25 08:04:00,
2013-03-25 04:09:00,29.0,26.7,29.47,North,2,0.0,0.0,91,0.02,,,0.15,VWS V14.00,2013-03-25 08:09:00,
2013-03-25 04:15:00,29.0,26.7,29.47,North,357,0.0,0.0,91,0.02,,,0.15,VWS V14.00,2013-03-25 08:15:00,
2013-03-25 04:20:00,29.0,26.7,29.47,North,2,0.0,0.0,91,0.01,,,0.15,VWS V14.00,2013-03-25 08:20:00,
2013-03-25 04:25:00,29.0,26.7,29.47,North,357,0.0,0.0,91,0.01,,,0.15,VWS V14.00,2013-03-25 08:25:00,
2013-03-25 04:30:00,29.0,26.7,29.47,North,3,0.0,0.0,91,0.01,,,0.15,VWS V14.00,2013-03-25 08:30:00,
2013-03-25 04:35:00,29.0,26.7,29.47,North,357,0.0,0.0,91,0.01,,,0.15,VWS V14.00,2013-03-25 08:35:00,
2013-03-25 04:40:00,29.0,26.7,29.47,North,0,0.0,0.0,91,0.01,,,0.15,VWS V14.00,2013-03-25 08:40:00,
2013-03-25 04:45:00,29.0,26.7,29.47,North,357,0.0,0.0,91,0.01,,,0.15,VWS V14.00,2013-03-25 08:45:00,
2013-03-25 04:50:00,29.0,26.7,29.47,North,357,0.0,0.0,91,0.01,,,0.15,VWS V14.00,2013-03-25 08:50:00,
2013-03-25 04:55:00,28.8,26.5,29.47,North,1,0.0,0.0,91,0.01,,,0.15,VWS V14.00,2013-03-25 08:55:00,
2013-03-25 05:00:00,28.8,26.5,29.47,North,357,0.0,0.0,91,0.02,,,0.16,VWS V14.00,2013-03-25 09:00:00,
2013-03-25 05:05:00,28.6,26.6,29.47,North,2,0.0,0.0,92,0.01,,,0.16,VWS V14.00,2013-03-25 09:05:00,
2013-03-25 05:10:00,28.6,26.6,29.47,North,357,0.0,0.0,92,0.01,,,0.16,VWS V14.00,2013-03-25 09:10:00,
2013-03-25 05:15:00,28.6,26.6,29.47,North,2,0.0,0.0,92,0.01,,,0.16,VWS V14.00,2013-03-25 09:15:00,
2013-03-25 05:21:00,28.6,26.6,29.47,North,357,0.0,0.0,92,0.01,,,0.16,VWS V14.00,2013-03-25 09:21:00,
2013-03-25 05:26:00,28.8,26.8,29.47,North,1,0.0,0.0,92,0.01,,,0.16,VWS V14.00,2013-03-25 09:26:00,
2013-03-25 05:31:00,28.8,26.8,29.47,North,3,0.0,0.0,92,0.01,,,0.16,VWS V14.00,2013-03-25 09:31:00,
2013-03-25 05:36:00,28.8,26.8,29.47,North,357,0.0,0.0,92,0.01,,,0.16,VWS V14.00,2013-03-25 09:36:00,
2013-03-25 05:41:00,28.8,26.8,29.47,North,357,0.0,0.0,92,0.01,,,0.16,VWS V14.00,2013-03-25 09:41:00,
2013-03-25 05:46:00,28.8,26.8,29.47,North,357,0.0,0.0,92,0.01,,,0.16,VWS V14.00,2013-03-25 09:46:00,
2013-03-25 05:51:00,28.8,26.8,29.47,North,357,0.0,0.0,92,0.01,,,0.16,VWS V14.00,2013-03-25 09:51:00,
2013-03-25 05:56:00,28.8,26.8,29.47,North,357,0.0,0.0,92,0.02,,,0.17,VWS V14.00,2013-03-25 09:56:00,
2013-03-25 06:01:00,28.8,26.8,29.47,North,2,0.0,0.0,92,0.01,,,0.17,VWS V14.00,2013-03-25 10:01:00,
2013-03-25 06:06:00,28.8,26.8,29.47,North,3,0.0,0.0,92,0.01,,,0.17,VWS V14.00,2013-03-25 10:06:00,
2013-03-25 06:11:00,28.8,26.8,29.47,North,1,0.0,0.0,92,0.02,,,0.18,VWS V14.00,2013-03-25 10:11:00,
2013-03-25 06:16:00,28.8,26.8,29.47,North,357,0.0,0.0,92,0.02,,,0.18,VWS V14.00,2013-03-25 10:16:00,
2013-03-25 06:22:00,28.8,26.8,29.47,North,357,0.0,0.0,92,0.02,,,0.18,VWS V14.00,2013-03-25 10:22:00,
2013-03-25 06:27:00,28.8,26.8,29.47,North,357,0.0,0.0,92,0.02,,,0.18,VWS V14.00,2013-03-25 10:27:00,
2013-03-25 06:32:00,28.8,26.8,29.47,North,357,0.0,0.0,92,0.02,,,0.18,VWS V14.00,2013-03-25 10:32:00,
2013-03-25 06:37:00,29.0,26.7,29.47,North,357,0.0,0.0,91,0.03,,,0.19,VWS V14.00,2013-03-25 10:37:00,
2013-03-25 06:42:00,28.8,26.5,29.47,North,357,0.0,0.0,91,0.03,,,0.19,VWS V14.00,2013-03-25 10:42:00,
2013-03-25 06:47:00,28.8,26.5,29.47,North,357,0.0,0.0,91,0.03,,,0.19,VWS V14.00,2013-03-25 10:47:00,
2013-03-25 06:52:00,28.8,26.5,29.47,North,357,0.0,0.0,91,0.03,,,0.19,VWS V14.00,2013-03-25 10:52:00,
2013-03-25 06:57:00,28.8,26.2,29.47,North,357,0.0,0.0,90,0.02,,,0.19,VWS V14.00,2013-03-25 10:57:00,
2013-03-25 07:02:00,28.6,26.1,29.47,North,357,0.0,0.0,90,0.02,,,0.19,VWS V14.00,2013-03-25 11:02:00,
2013-03-25 07:07:00,28.6,26.1,29.47,North,357,0.0,0.0,90,0.03,,,0.20,VWS V14.00,2013-03-25 11:07:00,
2013-03-25 07:12:00,28.6,26.1,29.47,North,3,0.0,0.0,90,0.02,,,0.20,VWS V14.00,2013-03-25 11:12:00,
2013-03-25 07:18:00,28.6,26.1,29.47,North,2,0.0,0.0,90,0.02,,OVC044,0.20,VWS V14.00,2013-03-25 11:18:00,
2013-03-25 07:23:00,28.6,26.1,29.47,North,357,0.0,0.0,90,0.02,,OVC044,0.20,VWS V14.00,2013-03-25 11:23:00,
2013-03-25 07:28:00,28.6,26.1,29.47,North,0,0.0,0.0,90,0.02,,OVC044,0.20,VWS V14.00,2013-03-25 11:28:00,
2013-03-25 07:33:00,28.6,26.1,29.47,North,3,0.0,0.0,90,0.02,,OVC044,0.20,VWS V14.00,2013-03-25 11:33:00,
2013-03-25 07:38:00,28.6,26.1,29.47,North,357,0.0,0.0,90,0.01,,OVC044,0.20,VWS V14.00,2013-03-25 11:38:00,
2013-03-25 07:43:00,28.6,26.1,29.47,North,357,0.0,0.0,90,0.01,,OVC044,0.20,VWS V14.00,2013-03-25 11:43:00,
2013-03-25 07:48:00,28.6,26.1,29.47,North,1,0.0,0.0,90,0.01,,OVC044,0.20,VWS V14.00,2013-03-25 11:48:00,
2013-03-25 07:53:00,28.8,26.2,29.47,North,2,0.0,0.0,90,0.01,,OVC044,0.20,VWS V14.00,2013-03-25 11:53:00,
2013-03-25 07:58:00,28.8,26.2,29.47,North,0,0.0,0.0,90,0.01,,OVC044,0.20,VWS V14.00,2013-03-25 11:58:00,
2013-03-25 08:03:00,28.8,26.2,29.47,North,357,0.0,0.0,90,0.02,,,0.21,VWS V14.00,2013-03-25 12:03:00,
2013-03-25 08:08:00,28.8,26.2,29.47,North,3,0.0,0.0,90,0.01,,,0.21,VWS V14.00,2013-03-25 12:08:00,
2013-03-25 08:13:00,29.0,26.4,29.47,North,3,0.0,0.0,90,0.01,,,0.21,VWS V14.00,2013-03-25 12:13:00,
2013-03-25 08:18:00,29.0,26.2,29.47,North,357,0.0,0.0,89,0.01,,,0.21,VWS V14.00,2013-03-25 12:18:00,
2013-03-25 08:23:00,29.0,26.2,29.47,North,3,0.0,0.0,89,0.01,,,0.21,VWS V14.00,2013-03-25 12:23:00,
2013-03-25 08:28:00,29.0,26.2,29.47,North,357,0.0,0.0,89,0.01,,,0.21,VWS V14.00,2013-03-25 12:28:00,
2013-03-25 08:33:00,29.0,26.4,29.47,North,357,0.0,0.0,90,0.01,,,0.21,VWS V14.00,2013-03-25 12:33:00,
2013-03-25 08:38:00,29.2,26.6,29.47,North,1,0.0,0.0,90,0.01,,,0.21,VWS V14.00,2013-03-25 12:38:00,
2013-03-25 08:43:00,29.2,26.6,29.47,North,0,0.0,0.0,90,0.01,,,0.21,VWS V14.00,2013-03-25 12:43:00,
2013-03-25 08:48:00,29.4,26.8,29.47,North,357,0.0,0.0,90,0.01,,,0.21,VWS V14.00,2013-03-25 12:48:00,
2013-03-25 08:54:00,29.4,26.8,29.47,North,2,0.0,0.0,90,0.01,,,0.21,VWS V14.00,2013-03-25 12:54:00,
2013-03-25 08:59:00,29.5,27.0,29.47,North,357,0.0,0.0,90,0.01,,,0.21,VWS V14.00,2013-03-25 12:59:00,
2013-03-25 09:04:00,29.9,27.4,29.47,North,357,0.0,0.0,90,0.00,,OVC029,0.21,VWS V14.00,2013-03-25 13:04:00,
2013-03-25 09:09:00,29.9,27.4,29.47,North,1,0.0,0.0,90,0.00,,OVC029,0.21,VWS V14.00,2013-03-25 13:09:00,
2013-03-25 09:14:00,30.1,27.3,29.47,North,357,0.0,0.0,89,0.00,,OVC029,0.21,VWS V14.00,2013-03-25 13:14:00,
2013-03-25 09:19:00,30.1,27.3,29.47,North,357,0.0,0.0,89,0.00,,OVC029,0.21,VWS V14.00,2013-03-25 13:19:00,
2013-03-25 09:24:00,30.1,27.0,29.47,North,1,0.0,0.0,88,0.00,,OVC029,0.21,VWS V14.00,2013-03-25 13:24:00,
2013-03-25 09:29:00,30.1,27.0,29.47,North,357,0.0,0.0,88,0.00,,OVC029,0.21,VWS V14.00,2013-03-25 13:29:00,
2013-03-25 09:34:00,30.1,27.0,29.47,North,2,3.4,3.8,88,0.00,,,0.21,VWS V14.00,2013-03-25 13:34:00,
2013-03-25 09:39:00,30.3,26.9,29.47,North,2,3.0,5.9,87,0.00,,,0.21,VWS V14.00,2013-03-25 13:39:00,
2013-03-25 09:44:00,30.3,26.6,29.47,North,1,3.0,4.8,86,0.00,,,0.21,VWS V14.00,2013-03-25 13:44:00,
2013-03-25 09:49:00,30.5,26.2,29.47,North,2,3.4,6.4,84,0.00,,,0.21,VWS V14.00,2013-03-25 13:49:00,
2013-03-25 09:54:00,30.5,25.9,29.47,North,357,4.9,5.4,83,0.00,,,0.21,VWS V14.00,2013-03-25 13:54:00,
2013-03-25 09:59:00,30.5,25.9,29.47,North,1,3.4,4.3,83,0.00,,,0.21,VWS V14.00,2013-03-25 13:59:00,
2013-03-25 10:04:00,30.3,25.8,29.47,North,357,3.4,5.9,83,0.00,,,0.21,VWS V14.00,2013-03-25 14:04:00,
2013-03-25 10:09:00,30.5,25.4,29.47,WSW,239,5.9,9.9,81,0.00,,,0.21,VWS V14.00,2013-03-25 14:09:00,
2013-03-25 10:14:00,30.7,24.3,29.47,West,276,6.4,7.0,77,0.00,,,0.21,VWS V14.00,2013-03-25 14:14:00,
2013-03-25 10:19:00,31.0,24.0,29.50,West,275,5.4,7.5,75,0.00,,,0.21,VWS V14.00,2013-03-25 14:19:00,
2013-03-25 10:24:00,31.2,23.3,29.50,WNW,291,3.9,7.0,72,0.00,,,0.21,VWS V14.00,2013-03-25 14:24:00,
2013-03-25 10:30:00,31.4,22.1,29.50,West,259,3.4,4.8,68,0.00,,,0.21,VWS V14.00,2013-03-25 14:30:00,
2013-03-25 10:35:00,31.6,22.3,29.47,WSW,238,5.9,6.4,68,0.00,,,0.21,VWS V14.00,2013-03-25 14:35:00,
2013-03-25 10:40:00,31.8,21.7,29.47,West,262,3.9,4.3,66,0.00,,,0.21,VWS V14.00,2013-03-25 14:40:00,
2013-03-25 10:45:00,32.0,21.5,29.47,WNW,290,5.4,7.0,65,0.00,,,0.21,VWS V14.00,2013-03-25 14:45:00,
2013-03-25 10:50:00,32.2,21.7,29.47,WNW,290,6.9,7.5,65,0.00,,,0.21,VWS V14.00,2013-03-25 14:50:00,
2013-03-25 10:55:00,32.2,21.0,29.47,West,263,8.9,9.9,63,0.00,,,0.21,VWS V14.00,2013-03-25 14:55:00,
2013-03-25 11:00:00,32.2,20.6,29.47,WSW,255,4.9,10.5,62,0.00,,,0.21,VWS V14.00,2013-03-25 15:00:00,
2013-03-25 11:05:00,32.3,21.2,29.47,WSW,250,4.4,5.9,63,0.00,,OVC050,0.21,VWS V14.00,2013-03-25 15:05:00,
2013-03-25 11:10:00,32.5,21.0,29.47,SSW,203,4.4,5.4,62,0.00,,OVC050,0.21,VWS V14.00,2013-03-25 15:10:00,
2013-03-25 11:15:00,32.5,21.0,29.47,SSW,208,3.9,6.4,62,0.00,,OVC050,0.21,VWS V14.00,2013-03-25 15:15:00,
2013-03-25 11:20:00,32.7,21.5,29.47,SSW,212,4.4,6.4,63,0.00,,,0.21,VWS V14.00,2013-03-25 15:20:00,
2013-03-25 11:25:00,32.5,21.3,29.47,WSW,240,6.4,8.6,63,0.00,,,0.21,VWS V14.00,2013-03-25 15:25:00,
2013-03-25 11:30:00,32.5,21.0,29.47,WSW,238,7.9,14.8,62,0.00,,,0.21,VWS V14.00,2013-03-25 15:30:00,
2013-03-25 11:35:00,32.7,21.5,29.50,West,265,4.4,10.5,63,0.00,,,0.21,VWS V14.00,2013-03-25 15:35:00,
2013-03-25 11:41:00,32.9,22.4,29.50,SW,218,3.4,8.6,65,0.00,,,0.21,VWS V14.00,2013-03-25 15:41:00,
2013-03-25 11:46:00,33.3,22.8,29.50,SSE,166,5.9,9.7,65,0.00,,,0.21,VWS V14.00,2013-03-25 15:46:00,
2013-03-25 11:51:00,33.6,22.0,29.50,SW,230,8.4,12.1,62,0.00,,,0.21,VWS V14.00,2013-03-25 15:51:00,
2013-03-25 11:56:00,33.8,21.0,29.50,WSW,246,14.0,15.3,59,0.00,,,0.21,VWS V14.00,2013-03-25 15:56:00,
2013-03-25 12:01:00,34.0,20.0,29.50,SW,234,8.9,10.5,56,0.00,,,0.21,VWS V14.00,2013-03-25 16:01:00,
2013-03-25 12:06:00,34.6,21.7,29.50,WSW,252,5.9,9.9,59,0.00,,,0.21,VWS V14.00,2013-03-25 16:06:00,
2013-03-25 12:12:00,34.6,20.9,29.50,SW,236,8.4,9.1,57,0.00,,,0.21,VWS V14.00,2013-03-25 16:12:00,
2013-03-25 12:17:00,34.2,21.0,29.50,SSW,194,8.4,9.9,58,0.00,,,0.21,VWS V14.00,2013-03-25 16:17:00,
2013-03-25 12:22:00,33.4,20.7,29.50,SSE,158,6.9,15.3,59,0.00,,,0.21,VWS V14.00,2013-03-25 16:22:00,
2013-03-25 12:27:00,33.8,21.8,29.50,SW,229,6.4,7.5,61,0.00,,,0.21,VWS V14.00,2013-03-25 16:27:00,
2013-03-25 12:32:00,33.8,20.6,29.50,SSW,206,9.6,16.9,58,0.00,,,0.21,VWS V14.00,2013-03-25 16:32:00,
2013-03-25 12:37:00,34.6,20.1,29.50,SW,228,6.9,15.8,55,0.00,,,0.21,VWS V14.00,2013-03-25 16:37:00,
2013-03-25 12:42:00,34.9,20.0,29.50,West,273,9.1,15.8,54,0.00,,,0.21,VWS V14.00,2013-03-25 16:42:00,
2013-03-25 12:47:00,34.6,20.1,29.50,West,267,11.6,16.4,55,0.00,,,0.21,VWS V14.00,2013-03-25 16:47:00,
2013-03-25 12:52:00,34.6,20.1,29.50,WSW,241,13.5,15.3,55,0.00,,,0.21,VWS V14.00,2013-03-25 16:52:00,
2013-03-25 12:57:00,34.9,20.0,29.50,WSW,248,9.1,15.3,54,0.00,,,0.21,VWS V14.00,2013-03-25 16:57:00,
2013-03-25 13:02:00,35.3,19.9,29.50,SSW,213,14.0,15.8,53,0.00,,,0.21,VWS V14.00,2013-03-25 17:02:00,
2013-03-25 13:08:00,36.2,19.9,29.50,West,265,14.0,15.3,51,0.00,,,0.21,VWS V14.00,2013-03-25 17:08:00,
2013-03-25 13:13:00,37.2,20.7,29.50,West,268,11.1,16.4,51,0.00,,,0.21,VWS V14.00,2013-03-25 17:13:00,
2013-03-25 13:18:00,36.8,19.9,29.50,SW,234,9.6,13.7,50,0.00,,,0.21,VWS V14.00,2013-03-25 17:18:00,
2013-03-25 13:23:00,36.6,19.7,29.50,West,273,14.0,15.3,50,0.00,,,0.21,VWS V14.00,2013-03-25 17:23:00,
2013-03-25 13:28:00,35.1,19.3,29.50,WSW,254,11.1,15.8,52,0.00,,,0.21,VWS V14.00,2013-03-25 17:28:00,
2013-03-25 13:33:00,34.6,18.3,29.50,West,267,16.0,21.5,51,0.00,,,0.21,VWS V14.00,2013-03-25 17:33:00,
2013-03-25 13:38:00,34.0,18.7,29.50,West,275,16.5,21.5,53,0.00,,,0.21,VWS V14.00,2013-03-25 17:38:00,
2013-03-25 13:43:00,33.1,18.2,29.50,West,276,11.1,20.9,54,0.00,,,0.21,VWS V14.00,2013-03-25 17:43:00,
2013-03-25 13:48:00,33.6,18.3,29.50,West,267,14.5,18.0,53,0.00,,,0.21,VWS V14.00,2013-03-25 17:48:00,
2013-03-25 13:53:00,33.3,18.0,29.50,West,259,12.1,20.9,53,0.00,,,0.21,VWS V14.00,2013-03-25 17:53:00,
2013-03-25 13:58:00,33.1,17.4,29.50,West,278,14.5,20.9,52,0.00,,,0.21,VWS V14.00,2013-03-25 17:58:00,
2013-03-25 14:03:00,33.3,18.0,29.50,West,273,11.6,12.6,53,0.00,,,0.21,VWS V14.00,2013-03-25 18:03:00,
2013-03-25 14:08:00,32.7,17.5,29.50,WNW,288,13.5,16.4,53,0.00,,,0.21,VWS V14.00,2013-03-25 18:08:00,
2013-03-25 14:13:00,32.7,17.9,29.50,West,260,6.9,9.7,54,0.00,,,0.21,VWS V14.00,2013-03-25 18:13:00,
2013-03-25 14:18:00,33.4,19.5,29.50,SW,234,6.9,8.6,56,0.00,,,0.21,VWS V14.00,2013-03-25 18:18:00,
2013-03-25 14:23:00,34.4,19.0,29.50,WSW,254,8.9,9.7,53,0.00,,,0.21,VWS V14.00,2013-03-25 18:23:00,
2013-03-25 14:29:00,34.0,18.7,29.50,West,262,11.1,13.2,53,0.00,,,0.21,VWS V14.00,2013-03-25 18:29:00,
2013-03-25 14:34:00,34.0,18.7,29.50,WSW,239,6.4,7.5,53,0.00,,,0.21,VWS V14.00,2013-03-25 18:34:00,
2013-03-25 14:39:00,33.8,18.5,29.50,WSW,251,10.1,14.8,53,0.00,,,0.21,VWS V14.00,2013-03-25 18:39:00,
2013-03-25 14:44:00,33.8,18.5,29.50,WSW,247,6.4,9.7,53,0.00,,,0.21,VWS V14.00,2013-03-25 18:44:00,
2013-03-25 14:49:00,34.4,18.6,29.50,SW,234,6.9,7.5,52,0.00,,,0.21,VWS V14.00,2013-03-25 18:49:00,
2013-03-25 14:54:00,34.2,18.9,29.50,West,279,11.6,15.3,53,0.00,,,0.21,VWS V14.00,2013-03-25 18:54:00,
2013-03-25 14:59:00,34.4,19.0,29.50,WSW,243,8.9,9.7,53,0.00,,,0.21,VWS V14.00,2013-03-25 18:59:00,
2013-03-25 15:04:00,34.6,18.8,29.50,West,277,8.9,13.2,52,0.00,,,0.21,VWS V14.00,2013-03-25 19:04:00,
2013-03-25 15:09:00,33.3,18.0,29.50,NW,306,15.0,18.5,53,0.00,,,0.21,VWS V14.00,2013-03-25 19:09:00,
2013-03-25 15:14:00,33.4,19.0,29.50,West,268,6.9,12.1,55,0.00,,,0.21,VWS V14.00,2013-03-25 19:14:00,
2013-03-25 15:19:00,33.6,19.6,29.53,SW,235,12.1,13.2,56,0.00,,,0.21,VWS V14.00,2013-03-25 19:19:00,
2013-03-25 15:25:00,33.8,19.8,29.53,SW,235,15.5,16.9,56,0.00,,,0.21,VWS V14.00,2013-03-25 19:25:00,
2013-03-25 15:30:00,34.0,20.4,29.53,West,272,9.6,14.8,57,0.00,,,0.21,VWS V14.00,2013-03-25 19:30:00,
2013-03-25 15:35:00,33.8,20.2,29.53,West,263,10.6,18.0,57,0.00,,,0.21,VWS V14.00,2013-03-25 19:35:00,
2013-03-25 15:40:00,34.2,21.0,29.53,WSW,256,8.9,10.5,58,0.00,,,0.21,VWS V14.00,2013-03-25 19:40:00,
2013-03-25 15:45:00,34.6,20.9,29.53,West,262,10.1,12.6,57,0.00,,,0.21,VWS V14.00,2013-03-25 19:45:00,
2013-03-25 15:50:00,34.4,21.1,29.53,WSW,253,12.1,13.2,58,0.00,,OVC025,0.21,VWS V14.00,2013-03-25 19:50:00,
2013-03-25 15:55:00,33.3,19.3,29.53,West,274,14.5,20.9,56,0.00,,OVC025,0.21,VWS V14.00,2013-03-25 19:55:00,
2013-03-25 16:00:00,34.0,19.5,29.53,WSW,258,19.2,20.9,55,0.00,,OVC025,0.21,VWS V14.00,2013-03-25 20:00:00,
2013-03-25 16:05:00,33.1,19.9,29.53,West,280,9.1,15.3,58,0.00,,OVC029,0.21,VWS V14.00,2013-03-25 20:05:00,
2013-03-25 16:10:00,33.3,20.5,29.53,WNW,284,11.1,15.3,59,0.00,,OVC029,0.21,VWS V14.00,2013-03-25 20:10:00,
2013-03-25 16:15:00,33.3,20.1,29.53,WSW,257,9.6,12.6,58,0.00,,OVC029,0.21,VWS V14.00,2013-03-25 20:15:00,
2013-03-25 16:20:00,33.3,19.3,29.53,WSW,252,13.0,15.8,56,0.00,,,0.21,VWS V14.00,2013-03-25 20:20:00,
2013-03-25 16:25:00,34.4,20.3,29.53,West,265,6.9,12.1,56,0.00,,,0.21,VWS V14.00,2013-03-25 20:25:00,
2013-03-25 16:30:00,33.3,18.9,29.53,West,267,12.5,15.8,55,0.00,,,0.21,VWS V14.00,2013-03-25 20:30:00,
2013-03-25 16:35:00,33.4,19.0,29.53,West,261,9.6,15.8,55,0.00,,,0.21,VWS V14.00,2013-03-25 20:35:00,
2013-03-25 16:40:00,33.8,19.4,29.53,West,264,8.4,13.2,55,0.00,,,0.21,VWS V14.00,2013-03-25 20:40:00,
2013-03-25 16:45:00,34.9,20.0,29.53,WSW,246,8.9,10.5,54,0.00,,,0.21,VWS V14.00,2013-03-25 20:45:00,
2013-03-25 16:51:00,34.6,19.6,29.53,WSW,249,9.6,10.5,54,0.00,,,0.21,VWS V14.00,2013-03-25 20:51:00,
2013-03-25 16:56:00,34.0,19.1,29.53,WSW,250,9.6,12.1,54,0.00,,,0.21,VWS V14.00,2013-03-25 20:56:00,
2013-03-25 17:01:00,33.8,19.4,29.53,West,274,9.6,10.5,55,0.00,,,0.21,VWS V14.00,2013-03-25 21:01:00,
2013-03-25 17:06:00,33.6,20.8,29.56,West,266,9.1,13.2,59,0.00,,,0.21,VWS V14.00,2013-03-25 21:06:00,
2013-03-25 17:11:00,34.0,20.4,29.56,WNW,289,8.4,19.6,57,0.00,,,0.21,VWS V14.00,2013-03-25 21:11:00,
2013-03-25 17:16:00,33.6,20.0,29.56,West,280,19.7,21.5,57,0.00,,,0.21,VWS V14.00,2013-03-25 21:16:00,
2013-03-25 17:21:00,33.1,18.7,29.56,SW,224,11.6,15.8,55,0.00,,,0.21,VWS V14.00,2013-03-25 21:21:00,
2013-03-25 17:26:00,32.3,18.4,29.56,West,266,11.1,15.8,56,0.00,,,0.21,VWS V14.00,2013-03-25 21:26:00,
2013-03-25 17:31:00,32.2,17.8,29.56,WNW,287,14.0,18.5,55,0.00,,,0.21,VWS V14.00,2013-03-25 21:31:00,
2013-03-25 17:36:00,32.2,17.8,29.56,WNW,297,14.0,15.3,55,0.00,,,0.21,VWS V14.00,2013-03-25 21:36:00,
2013-03-25 17:41:00,32.0,18.1,29.56,WSW,257,8.9,14.8,56,0.00,,,0.21,VWS V14.00,2013-03-25 21:41:00,
2013-03-25 17:46:00,32.0,18.9,29.56,West,263,6.4,16.9,58,0.00,,,0.21,VWS V14.00,2013-03-25 21:46:00,
2013-03-25 17:52:00,32.2,19.0,29.59,SSW,204,5.9,7.5,58,0.00,,,0.21,VWS V14.00,2013-03-25 21:52:00,
2013-03-25 17:57:00,32.2,18.6,29.59,WSW,238,12.1,13.2,57,0.00,,,0.21,VWS V14.00,2013-03-25 21:57:00,
2013-03-25 18:02:00,32.0,18.9,29.59,West,268,9.6,10.5,58,0.00,,,0.21,VWS V14.00,2013-03-25 22:02:00,
2013-03-25 18:07:00,31.8,19.5,29.59,SW,234,4.4,9.9,60,0.00,,,0.21,VWS V14.00,2013-03-25 22:07:00,
2013-03-25 18:12:00,31.4,19.9,29.59,SSW,198,5.9,7.5,62,0.00,,,0.21,VWS V14.00,2013-03-25 22:12:00,
2013-03-25 18:17:00,31.0,21.0,29.59,WSW,252,6.9,9.9,66,0.00,,,0.21,VWS V14.00,2013-03-25 22:17:00,
2013-03-25 18:22:00,31.0,21.4,29.59,WSW,240,9.6,12.1,67,0.00,,,0.21,VWS V14.00,2013-03-25 22:22:00,
2013-03-25 18:27:00,30.9,20.5,29.59,West,273,12.1,13.2,65,0.00,,,0.21,VWS V14.00,2013-03-25 22:27:00,
2013-03-25 18:32:00,30.9,20.5,29.62,West,267,14.5,16.9,65,0.00,,,0.21,VWS V14.00,2013-03-25 22:32:00,
2013-03-25 18:37:00,31.0,20.3,29.62,WSW,254,8.9,13.2,64,0.00,,,0.21,VWS V14.00,2013-03-25 22:37:00,
2013-03-25 18:42:00,31.2,20.1,29.62,SW,222,8.4,10.5,63,0.00,,,0.21,VWS V14.00,2013-03-25 22:42:00,
2013-03-25 18:47:00,31.2,20.1,29.62,WSW,250,6.9,9.7,63,0.00,,,0.21,VWS V14.00,2013-03-25 22:47:00,
2013-03-25 18:52:00,31.0,19.5,29.62,WSW,254,4.4,7.0,62,0.00,,,0.21,VWS V14.00,2013-03-25 22:52:00,
2013-03-25 18:57:00,31.0,19.9,29.62,WSW,241,6.4,7.0,63,0.00,,,0.21,VWS V14.00,2013-03-25 22:57:00,
2013-03-25 19:03:00,30.9,20.5,29.62,WSW,251,6.9,9.1,65,0.00,,,0.21,VWS V14.00,2013-03-25 23:03:00,
2013-03-25 19:08:00,30.7,21.0,29.62,SW,221,4.9,10.5,67,0.00,,,0.21,VWS V14.00,2013-03-25 23:08:00,
2013-03-25 19:13:00,30.3,21.0,29.62,SSW,206,6.9,8.1,68,0.00,,,0.21,VWS V14.00,2013-03-25 23:13:00,
2013-03-25 19:18:00,30.1,21.2,29.62,WSW,246,8.9,12.6,69,0.00,,,0.21,VWS V14.00,2013-03-25 23:18:00,
2013-03-25 19:23:00,30.1,21.2,29.62,WSW,243,8.9,9.7,69,0.00,,,0.21,VWS V14.00,2013-03-25 23:23:00,
2013-03-25 19:28:00,29.9,20.3,29.62,WSW,257,11.6,15.8,67,0.00,,,0.21,VWS V14.00,2013-03-25 23:28:00,
2013-03-25 19:33:00,29.9,20.7,29.62,WSW,254,9.6,12.1,68,0.00,,,0.21,VWS V14.00,2013-03-25 23:33:00,
2013-03-25 19:38:00,29.7,20.5,29.62,WSW,240,8.9,12.1,68,0.00,,,0.21,VWS V14.00,2013-03-25 23:38:00,
2013-03-25 19:43:00,29.5,20.6,29.62,West,272,15.0,16.4,69,0.00,,,0.21,VWS V14.00,2013-03-25 23:43:00,
2013-03-25 19:48:00,29.5,20.6,29.65,West,265,13.5,14.8,69,0.00,,,0.21,VWS V14.00,2013-03-25 23:48:00,
2013-03-25 19:53:00,29.4,20.8,29.65,WSW,247,9.1,13.7,70,0.00,,,0.21,VWS V14.00,2013-03-25 23:53:00,
2013-03-25 19:58:00,29.5,20.6,29.65,WSW,245,6.9,9.9,69,0.00,,,0.21,VWS V14.00,2013-03-25 23:58:00,
2013-03-25 20:03:00,29.4,20.8,29.65,WSW,243,4.4,12.6,70,0.00,,,0.21,VWS V14.00,2013-03-26 00:03:00,
2013-03-25 20:09:00,29.4,21.1,29.65,SSW,205,6.9,10.5,71,0.00,,,0.21,VWS V14.00,2013-03-26 00:09:00,
2013-03-25 20:14:00,29.4,21.5,29.65,SSW,210,4.4,6.4,72,0.00,,,0.21,VWS V14.00,2013-03-26 00:14:00,
2013-03-25 20:19:00,29.2,21.9,29.65,South,189,4.4,6.4,74,0.00,,,0.21,VWS V14.00,2013-03-26 00:19:00,
2013-03-25 20:24:00,29.2,21.9,29.65,SW,224,4.9,7.5,74,0.00,,,0.21,VWS V14.00,2013-03-26 00:24:00,
2013-03-25 20:29:00,29.4,22.1,29.65,WNW,289,5.9,10.5,74,0.00,,,0.21,VWS V14.00,2013-03-26 00:29:00,
2013-03-25 20:34:00,29.4,21.8,29.65,SW,220,4.9,9.7,73,0.00,,,0.21,VWS V14.00,2013-03-26 00:34:00,
2013-03-25 20:39:00,29.5,21.6,29.65,West,277,6.4,7.5,72,0.00,,,0.21,VWS V14.00,2013-03-26 00:39:00,
2013-03-25 20:44:00,29.5,21.3,29.65,SW,225,5.9,7.0,71,0.00,,,0.21,VWS V14.00,2013-03-26 00:44:00,
2013-03-25 20:49:00,29.5,21.3,29.65,SW,216,8.9,9.7,71,0.00,,,0.21,VWS V14.00,2013-03-26 00:49:00,
2013-03-25 20:55:00,29.7,21.2,29.65,SSW,209,6.9,7.5,70,0.00,,,0.21,VWS V14.00,2013-03-26 00:55:00,
2013-03-25 21:00:00,29.5,21.0,29.65,SW,231,6.9,8.1,70,0.00,,,0.21,VWS V14.00,2013-03-26 01:00:00,
2013-03-25 21:05:00,29.7,21.2,29.67,SSW,198,3.9,6.4,70,0.00,,,0.21,VWS V14.00,2013-03-26 01:05:00,
2013-03-25 21:10:00,29.7,21.2,29.67,SSW,199,9.6,10.5,70,0.00,,,0.21,VWS V14.00,2013-03-26 01:10:00,
2013-03-25 21:16:00,29.7,21.2,29.67,WSW,240,8.4,9.7,70,0.00,,,0.21,VWS V14.00,2013-03-26 01:16:00,
2013-03-25 21:21:00,29.7,21.2,29.67,WSW,246,7.4,10.5,70,0.00,,,0.21,VWS V14.00,2013-03-26 01:21:00,
2013-03-25 21:26:00,29.7,21.2,29.67,SW,231,5.9,8.6,70,0.00,,,0.21,VWS V14.00,2013-03-26 01:26:00,
2013-03-25 21:32:00,29.7,21.2,29.67,WSW,246,5.9,9.9,70,0.00,,,0.21,VWS V14.00,2013-03-26 01:32:00,
2013-03-25 21:37:00,29.9,21.3,29.67,WSW,245,9.1,9.9,70,0.00,,,0.21,VWS V14.00,2013-03-26 01:37:00,
2013-03-25 21:42:00,29.9,21.3,29.67,WSW,252,9.1,12.1,70,0.00,,,0.21,VWS V14.00,2013-03-26 01:42:00,
2013-03-25 21:47:00,29.9,21.3,29.67,West,265,6.4,10.5,70,0.00,,,0.21,VWS V14.00,2013-03-26 01:47:00,
2013-03-25 21:52:00,29.9,21.3,29.67,WSW,242,6.9,9.7,70,0.00,,,0.21,VWS V14.00,2013-03-26 01:52:00,
2013-03-25 21:57:00,29.9,21.3,29.67,WSW,244,9.6,14.2,70,0.00,,,0.21,VWS V14.00,2013-03-26 01:57:00,
2013-03-25 22:02:00,29.9,21.3,29.67,WSW,245,9.6,10.5,70,0.00,,,0.21,VWS V14.00,2013-03-26 02:02:00,
2013-03-25 22:07:00,29.9,21.3,29.67,WSW,248,9.1,9.9,70,0.00,,,0.21,VWS V14.00,2013-03-26 02:07:00,
2013-03-25 22:12:00,29.9,21.3,29.67,West,268,9.1,12.6,70,0.00,,,0.21,VWS V14.00,2013-03-26 02:12:00,
2013-03-25 22:17:00,29.9,21.7,29.67,SW,236,6.4,8.6,71,0.00,,,0.21,VWS V14.00,2013-03-26 02:17:00,
2013-03-25 22:23:00,29.9,21.7,29.67,SW,230,6.4,7.0,71,0.00,,,0.21,VWS V14.00,2013-03-26 02:23:00,
2013-03-25 22:28:00,29.9,22.0,29.67,West,260,8.9,12.1,72,0.00,,,0.21,VWS V14.00,2013-03-26 02:28:00,
2013-03-25 22:33:00,29.9,22.0,29.67,SW,233,6.9,10.5,72,0.00,,,0.21,VWS V14.00,2013-03-26 02:33:00,
2013-03-25 22:38:00,29.9,22.0,29.67,WSW,248,6.9,7.5,72,0.00,,,0.21,VWS V14.00,2013-03-26 02:38:00,
2013-03-25 22:43:00,29.9,22.0,29.67,SW,227,8.9,10.5,72,0.00,,,0.21,VWS V14.00,2013-03-26 02:43:00,
2013-03-25 22:48:00,29.9,22.0,29.70,WSW,250,11.6,12.6,72,0.00,,,0.21,VWS V14.00,2013-03-26 02:48:00,
2013-03-25 22:53:00,29.9,22.0,29.70,SW,219,4.4,7.5,72,0.00,,,0.21,VWS V14.00,2013-03-26 02:53:00,
2013-03-25 22:58:00,29.9,22.3,29.70,WSW,250,10.6,11.5,73,0.00,,,0.21,VWS V14.00,2013-03-26 02:58:00,
2013-03-25 23:03:00,29.9,22.0,29.70,SW,226,7.4,12.1,72,0.00,,,0.21,VWS V14.00,2013-03-26 03:03:00,
2013-03-25 23:08:00,29.9,22.3,29.70,WSW,242,9.1,10.5,73,0.00,,,0.21,VWS V14.00,2013-03-26 03:08:00,
2013-03-25 23:13:00,29.9,22.3,29.70,WSW,252,9.1,11.0,73,0.00,,,0.21,VWS V14.00,2013-03-26 03:13:00,
2013-03-25 23:18:00,29.9,22.3,29.70,SW,223,9.6,12.6,73,0.00,,,0.21,VWS V14.00,2013-03-26 03:18:00,
2013-03-25 23:23:00,29.9,22.3,29.70,SW,233,4.4,7.5,73,0.00,,,0.21,VWS V14.00,2013-03-26 03:23:00,
2013-03-25 23:28:00,29.9,22.3,29.70,WSW,243,6.4,10.5,73,0.00,,,0.21,VWS V14.00,2013-03-26 03:28:00,
2013-03-25 23:33:00,29.9,22.3,29.70,West,267,4.4,9.9,73,0.00,,,0.21,VWS V14.00,2013-03-26 03:33:00,
2013-03-25 23:38:00,29.9,22.3,29.70,SW,230,5.9,12.6,73,0.00,,,0.21,VWS V14.00,2013-03-26 03:38:00,
2013-03-25 23:43:00,30.1,22.5,29.70,SW,230,8.9,12.6,73,0.00,,,0.21,VWS V14.00,2013-03-26 03:43:00,
2013-03-25 23:49:00,30.1,22.5,29.70,West,260,6.9,10.5,73,0.00,,,0.21,VWS V14.00,2013-03-26 03:49:00,
2013-03-25 23:54:00,30.1,22.5,29.70,West,262,10.6,11.5,73,0.00,,,0.21,VWS V14.00,2013-03-26 03:54:00,
2013-03-25 23:59:00,29.9,22.3,29.70,SW,222,9.1,10.5,73,0.00,,,0.21,VWS V14.00,2013-03-26 03:59:00,